Terminal Aerodrome Forecast
Issued by NWS

Home | Current Version | Previous Version | Text Only | Print | Product List | Glossary On
Versions: 1 2 3 4 5 6 7 8 9 10 11 12 13 14 15 16 17 18
146
FTUS43 KICT 160530
TAFHUT
TAF
KHUT 160530Z 1606/1706 02007KT 5SM -RA BR OVC003
      TEMPO 1606/1610 2SM RA BR OVC005
     FM161000 01009KT 2SM -DZ BR OVC003
     FM161600 36011KT P6SM OVC006
     FM161900 32012KT P6SM OVC008
     FM162100 32013KT P6SM OVC011=

USA.gov is the U.S. government's official web portal to all federal, state and local government web resources and services.